Time;durP1;ratioP1;P1;durP2;ratioP2;P2;SDS_P1;SDS_P2;PMS_P1;PMS_P2;Temp;Humidity;BMP_temperature;BMP_pressure;BME280_temperature;BME280_humidity;BME280_pressure;Samples;Min_cycle;Max_cycle;Signal;HPM_P1;HPM_P2
2022/11/05 00:10:27;;;;;;;1.00;0.60;;;10.60;99.90;;;;;;5093946;28;20404;-75
2022/11/05 00:18:26;;;;;;;1.10;0.60;;;10.40;99.90;;;;;;5096851;28;20480;-74
2022/11/05 00:20:53;;;;;;;0.70;0.40;;;10.20;99.90;;;;;;5096253;28;20472;-74
2022/11/05 00:26:06;;;;;;;1.20;0.60;;;10.10;99.90;;;;;;5096025;28;20420;-75
2022/11/05 00:28:34;;;;;;;1.70;0.50;;;10.00;99.90;;;;;;5095751;28;20475;-75
2022/11/05 00:31:04;;;;;;;0.90;0.50;;;10.00;99.90;;;;;;5095724;28;20510;-75
2022/11/05 00:33:32;;;;;;;0.65;0.40;;;9.90;99.90;;;;;;5095670;28;20472;-75
2022/11/05 00:35:59;;;;;;;0.70;0.40;;;10.00;99.90;;;;;;5095286;28;20835;-75
2022/11/05 00:38:26;;;;;;;0.90;0.50;;;10.00;99.90;;;;;;5098568;28;20414;-75
2022/11/05 00:40:53;;;;;;;0.90;0.50;;;10.10;99.90;;;;;;5099830;28;20491;-75
2022/11/05 00:46:05;;;;;;;0.80;0.40;;;10.10;99.90;;;;;;5098753;28;20840;-75
2022/11/05 00:51:18;;;;;;;0.82;0.50;;;10.10;99.90;;;;;;5099290;28;20405;-75
2022/11/05 00:53:45;;;;;;;0.80;0.40;;;10.00;99.90;;;;;;5099279;28;20446;-74
2022/11/05 00:56:18;;;;;;;1.20;0.40;;;10.00;99.90;;;;;;5098613;28;20468;-75
2022/11/05 00:58:45;;;;;;;1.80;0.40;;;10.00;99.90;;;;;;5098429;28;20475;-74
2022/11/05 01:01:14;;;;;;;1.00;0.50;;;9.90;99.90;;;;;;5098220;28;20434;-74
2022/11/05 01:03:41;;;;;;;0.90;0.40;;;9.80;99.90;;;;;;5098301;28;20467;-75
2022/11/05 01:06:10;;;;;;;0.60;0.30;;;9.80;99.90;;;;;;5099712;28;20426;-75
2022/11/05 01:08:37;;;;;;;0.60;0.40;;;9.80;99.90;;;;;;5098303;28;20422;-75
2022/11/05 01:11:10;;;;;;;0.60;0.40;;;9.80;99.90;;;;;;5098953;28;20422;-74
2022/11/05 01:13:37;;;;;;;0.60;0.40;;;9.80;99.90;;;;;;5098764;28;20418;-74
2022/11/05 01:16:07;;;;;;;0.73;0.50;;;10.00;99.90;;;;;;5098502;28;20465;-74
2022/11/05 01:18:37;;;;;;;1.00;0.30;;;10.10;99.90;;;;;;5098712;28;20505;-75
2022/11/05 01:21:12;;;;;;;1.02;0.50;;;10.00;99.90;;;;;;5098230;28;20922;-74
2022/11/05 01:23:39;;;;;;;0.70;0.40;;;10.10;99.90;;;;;;5097089;28;20468;-75
2022/11/05 01:26:13;;;;;;;0.60;0.40;;;10.10;99.90;;;;;;5098152;28;20479;-75
2022/11/05 01:28:40;;;;;;;0.75;0.40;;;10.00;99.90;;;;;;5099365;28;20418;-75
2022/11/05 01:31:07;;;;;;;0.60;0.40;;;9.80;99.90;;;;;;5099197;28;20432;-75
2022/11/05 01:33:36;;;;;;;0.80;0.50;;;9.70;99.90;;;;;;5097828;28;20485;-75
2022/11/05 01:36:05;;;;;;;0.67;0.40;;;9.70;99.90;;;;;;5098229;28;20915;-74
2022/11/05 01:38:35;;;;;;;0.80;0.40;;;9.80;99.90;;;;;;5098131;28;20883;-74
2022/11/05 01:41:02;;;;;;;0.70;0.40;;;9.80;99.90;;;;;;5098351;28;20469;-75
2022/11/05 01:43:46;;;;;;;0.60;0.40;;;9.90;99.90;;;;;;5097443;28;20442;-74
2022/11/05 01:46:13;;;;;;;0.60;0.30;;;10.10;99.90;;;;;;5097667;28;20483;-75
2022/11/05 01:48:42;;;;;;;0.50;0.30;;;10.10;99.90;;;;;;5098162;28;20424;-74
2022/11/05 01:51:14;;;;;;;0.70;0.40;;;10.20;99.90;;;;;;5098056;28;20479;-75
2022/11/05 01:53:44;;;;;;;1.73;0.40;;;10.20;99.90;;;;;;5097658;28;20422;-74
2022/11/05 01:56:14;;;;;;;0.60;0.30;;;10.30;99.90;;;;;;5098374;28;20426;-75
2022/11/05 01:58:45;;;;;;;0.63;0.30;;;10.20;99.90;;;;;;5098478;28;20417;-74
2022/11/05 02:01:12;;;;;;;0.70;0.40;;;10.20;99.90;;;;;;5098852;28;20767;-74
2022/11/05 02:03:42;;;;;;;0.80;0.40;;;10.20;99.90;;;;;;5106505;28;20422;-75
2022/11/05 02:06:12;;;;;;;0.60;0.40;;;10.10;99.90;;;;;;5104002;28;20422;-76
2022/11/05 02:08:51;;;;;;;0.70;0.40;;;10.00;99.90;;;;;;5106426;28;20826;-75
2022/11/05 02:11:19;;;;;;;0.55;0.30;;;9.90;99.90;;;;;;5107126;28;20518;-75
2022/11/05 02:13:49;;;;;;;0.80;0.40;;;9.90;99.90;;;;;;5107896;28;20421;-75
2022/11/05 02:16:28;;;;;;;0.70;0.30;;;10.00;99.90;;;;;;5107921;28;20533;-75
2022/11/05 02:19:02;;;;;;;0.60;0.30;;;10.00;99.90;;;;;;5108505;28;20452;-76
2022/11/05 02:22:00;;;;;;;0.70;0.30;;;10.00;99.90;;;;;;5108085;28;20458;-75
2022/11/05 02:24:56;;;;;;;0.50;0.30;;;10.00;99.90;;;;;;5108479;28;20833;-76
2022/11/05 02:27:44;;;;;;;0.65;0.40;;;9.90;99.90;;;;;;5107086;28;20414;-75
2022/11/05 02:30:42;;;;;;;0.50;0.30;;;9.80;99.90;;;;;;5097459;28;20422;-74
2022/11/05 02:33:35;;;;;;;0.50;0.30;;;9.90;99.90;;;;;;5088661;28;20421;-75
2022/11/05 02:36:20;;;;;;;0.50;0.30;;;10.00;99.90;;;;;;5097675;28;20620;-74
2022/11/05 02:39:02;;;;;;;0.80;0.30;;;9.90;99.90;;;;;;5097597;28;20487;-75
2022/11/05 02:41:38;;;;;;;0.50;0.30;;;9.80;99.90;;;;;;5097879;28;20437;-75
2022/11/05 02:44:17;;;;;;;0.60;0.30;;;9.70;99.90;;;;;;5096961;28;20429;-75
2022/11/05 02:46:54;;;;;;;0.50;0.30;;;9.70;99.90;;;;;;5097434;28;20471;-75
2022/11/05 02:49:32;;;;;;;0.70;0.30;;;9.80;99.90;;;;;;5097032;28;20422;-75
2022/11/05 02:52:04;;;;;;;1.10;0.40;;;9.90;99.90;;;;;;5097260;28;20465;-75
2022/11/05 02:54:35;;;;;;;0.70;0.30;;;10.00;99.90;;;;;;5096735;28;20451;-75
2022/11/05 02:57:03;;;;;;;0.50;0.30;;;10.10;99.90;;;;;;5096949;28;20456;-75
2022/11/05 02:59:30;;;;;;;0.60;0.30;;;10.10;99.90;;;;;;5097597;28;20418;-75
2022/11/05 03:02:00;;;;;;;0.53;0.33;;;10.20;99.90;;;;;;5100669;28;20479;-75
2022/11/05 03:04:28;;;;;;;0.50;0.30;;;10.10;99.90;;;;;;5104243;28;20469;-75
2022/11/05 03:07:18;;;;;;;0.50;0.30;;;10.10;99.90;;;;;;5099674;28;20444;-76
2022/11/05 03:10:18;;;;;;;0.47;0.30;;;10.10;99.90;;;;;;5104416;28;20418;-75
2022/11/05 03:12:55;;;;;;;0.50;0.30;;;10.20;99.90;;;;;;5102885;28;20426;-75
2022/11/05 03:15:34;;;;;;;0.70;0.40;;;10.10;99.90;;;;;;5106070;28;20714;-75
2022/11/05 03:18:10;;;;;;;0.50;0.30;;;10.10;99.90;;;;;;5107609;28;20557;-75
2022/11/05 03:20:42;;;;;;;0.50;0.30;;;10.20;99.90;;;;;;5106645;28;20455;-76
2022/11/05 03:23:15;;;;;;;0.60;0.30;;;10.10;99.90;;;;;;5107503;28;20422;-76
2022/11/05 03:25:47;;;;;;;0.50;0.40;;;10.00;99.90;;;;;;5106520;28;20451;-76
2022/11/05 03:28:15;;;;;;;0.57;0.30;;;10.10;99.90;;;;;;5104138;28;20451;-75
2022/11/05 03:30:43;;;;;;;0.82;0.30;;;10.10;99.90;;;;;;5102126;28;20470;-75
2022/11/05 03:33:17;;;;;;;1.50;0.30;;;10.10;99.90;;;;;;5101828;28;20418;-75
2022/11/05 03:35:46;;;;;;;0.80;0.50;;;10.10;99.90;;;;;;5100844;28;20796;-75
2022/11/05 03:38:17;;;;;;;0.60;0.40;;;10.20;99.90;;;;;;5102092;28;20444;-75
2022/11/05 03:40:47;;;;;;;0.60;0.40;;;10.20;99.90;;;;;;5101694;28;20433;-75
2022/11/05 03:43:16;;;;;;;1.00;0.40;;;10.20;99.90;;;;;;5102054;28;20784;-75
2022/11/05 03:45:47;;;;;;;0.70;0.40;;;10.20;99.90;;;;;;5102906;28;20451;-75
2022/11/05 03:48:18;;;;;;;0.80;0.40;;;10.00;99.90;;;;;;5101933;28;20414;-75
2022/11/05 03:50:53;;;;;;;0.57;0.30;;;9.90;99.90;;;;;;5104465;28;20421;-76
2022/11/05 03:53:25;;;;;;;0.90;0.40;;;9.90;99.90;;;;;;5101277;28;20418;-76
2022/11/05 03:55:58;;;;;;;0.70;0.40;;;9.70;99.90;;;;;;5100238;28;20430;-75
2022/11/05 03:58:27;;;;;;;1.10;1.00;;;9.80;99.90;;;;;;5101225;28;20418;-75
2022/11/05 04:00:56;;;;;;;1.50;0.40;;;10.00;99.90;;;;;;5104636;28;20440;-76
2022/11/05 04:03:24;;;;;;;0.60;0.40;;;9.90;99.90;;;;;;5104392;28;20449;-76
2022/11/05 04:14:03;;;;;;;0.70;0.40;;;9.70;99.90;;;;;;5103818;28;20915;-76
2022/11/05 04:24:07;;;;;;;0.63;0.40;;;9.90;99.90;;;;;;5100618;28;20398;-75
2022/11/05 04:24:48;;;;;;;0.73;0.40;;;10.10;99.90;;;;;;5099557;28;20405;-75
2022/11/05 04:27:15;;;;;;;0.60;0.40;;;10.00;99.90;;;;;;5100048;28;20426;-75
2022/11/05 04:32:26;;;;;;;0.50;0.30;;;9.80;99.90;;;;;;5099541;28;20848;-75
2022/11/05 04:34:54;;;;;;;0.60;0.40;;;10.00;99.90;;;;;;5098887;28;20768;-75
2022/11/05 04:37:21;;;;;;;0.60;0.40;;;10.00;99.90;;;;;;5111107;28;20424;-75
2022/11/05 04:39:48;;;;;;;0.70;0.40;;;10.00;99.90;;;;;;5120751;28;20787;-75
2022/11/05 04:42:15;;;;;;;0.70;0.40;;;10.00;99.90;;;;;;5120067;28;20847;-75
2022/11/05 04:44:42;;;;;;;0.60;0.40;;;10.00;99.90;;;;;;5119383;28;20816;-75
2022/11/05 04:47:09;;;;;;;0.80;0.40;;;10.00;99.90;;;;;;5110823;28;20550;-75
2022/11/05 04:49:36;;;;;;;1.10;0.30;;;10.00;99.90;;;;;;5119066;28;20455;-75
2022/11/05 04:52:04;;;;;;;0.90;0.30;;;9.90;99.90;;;;;;5119161;28;20456;-75
2022/11/05 04:54:31;;;;;;;0.50;0.30;;;10.00;99.90;;;;;;5118966;28;20835;-74
2022/11/05 04:56:58;;;;;;;0.52;0.30;;;9.90;99.90;;;;;;5119466;28;20463;-75
2022/11/05 04:59:25;;;;;;;0.50;0.22;;;10.00;99.90;;;;;;5119552;28;20416;-75
2022/11/05 05:01:52;;;;;;;1.00;0.30;;;9.90;99.90;;;;;;5120732;28;20436;-75
2022/11/05 05:04:19;;;;;;;0.40;0.20;;;9.80;99.90;;;;;;5120564;28;20481;-75
2022/11/05 05:06:46;;;;;;;0.60;0.30;;;9.60;99.90;;;;;;5120779;28;20455;-74
2022/11/05 05:09:15;;;;;;;0.75;0.30;;;9.50;99.90;;;;;;5120703;28;20416;-75
2022/11/05 05:11:42;;;;;;;0.52;0.30;;;9.40;99.90;;;;;;5120089;28;20444;-75
2022/11/05 05:14:09;;;;;;;0.80;0.40;;;9.50;99.90;;;;;;5119445;28;20858;-75
2022/11/05 05:16:38;;;;;;;0.60;0.40;;;9.40;99.90;;;;;;5119968;28;20473;-75
2022/11/05 05:19:05;;;;;;;0.70;0.40;;;9.40;99.90;;;;;;5119354;28;20435;-75
2022/11/05 05:21:39;;;;;;;0.80;0.50;;;9.60;99.90;;;;;;5119900;28;20440;-75
2022/11/05 05:24:08;;;;;;;0.85;0.50;;;9.80;99.90;;;;;;5119780;28;20503;-75
2022/11/05 05:26:37;;;;;;;1.00;0.57;;;9.70;99.90;;;;;;5120080;28;20884;-74
2022/11/05 05:29:05;;;;;;;1.60;1.00;;;9.80;99.90;;;;;;5119928;28;20456;-73
2022/11/05 05:31:32;;;;;;;1.90;0.90;;;9.70;99.90;;;;;;5119989;28;20770;-75
2022/11/05 05:33:59;;;;;;;1.50;1.00;;;9.70;99.90;;;;;;5119204;28;20795;-74
2022/11/05 05:36:26;;;;;;;1.70;1.20;;;9.70;99.90;;;;;;5118863;28;20803;-74
2022/11/05 05:38:53;;;;;;;2.07;1.10;;;9.60;99.90;;;;;;5118139;28;20419;-74
2022/11/05 05:41:20;;;;;;;2.40;1.20;;;9.50;99.90;;;;;;5118765;28;20436;-74
2022/11/05 05:43:49;;;;;;;2.10;1.10;;;9.50;99.90;;;;;;5118853;28;20468;-74
2022/11/05 05:46:18;;;;;;;2.10;1.20;;;9.40;99.90;;;;;;5118619;28;20713;-74
2022/11/05 05:48:49;;;;;;;2.13;1.20;;;9.50;99.90;;;;;;5118775;28;20416;-74
2022/11/05 05:51:16;;;;;;;1.90;1.30;;;9.70;99.90;;;;;;5119281;28;20416;-74
2022/11/05 05:53:43;;;;;;;2.30;1.17;;;9.70;99.90;;;;;;5118750;28;20412;-74
2022/11/05 05:56:13;;;;;;;2.10;1.35;;;9.60;99.90;;;;;;5118946;28;20424;-74
2022/11/05 05:58:40;;;;;;;2.60;1.30;;;9.70;99.90;;;;;;5119965;28;20533;-74
2022/11/05 06:01:12;;;;;;;2.10;1.30;;;9.80;99.90;;;;;;5119458;28;20432;-74
2022/11/05 06:03:39;;;;;;;1.80;1.15;;;9.80;99.90;;;;;;5118707;28;20424;-74
2022/11/05 06:06:09;;;;;;;2.70;1.30;;;9.90;99.90;;;;;;5118965;28;20432;-74
2022/11/05 06:08:37;;;;;;;4.10;1.40;;;9.90;99.90;;;;;;5118235;28;20786;-74
2022/11/05 06:11:05;;;;;;;2.50;1.30;;;10.00;99.90;;;;;;5118894;28;20776;-74
2022/11/05 06:13:32;;;;;;;3.65;1.40;;;10.00;99.90;;;;;;5118356;28;20841;-74
2022/11/05 06:16:01;;;;;;;3.70;1.40;;;9.90;99.90;;;;;;5119184;28;20743;-74
2022/11/05 06:18:29;;;;;;;3.70;1.90;;;10.00;99.90;;;;;;5117825;28;20463;-74
2022/11/05 06:21:01;;;;;;;2.63;1.40;;;10.20;99.90;;;;;;5116410;28;20474;-74
2022/11/05 06:23:33;;;;;;;4.28;2.25;;;10.50;99.90;;;;;;5116763;28;20416;-74
2022/11/05 06:26:01;;;;;;;5.20;3.00;;;10.30;99.90;;;;;;5116754;28;20424;-74
2022/11/05 06:28:29;;;;;;;4.55;2.75;;;10.70;99.90;;;;;;5116355;28;20416;-75
2022/11/05 06:30:56;;;;;;;3.80;2.60;;;10.50;99.90;;;;;;5117319;28;20424;-75
2022/11/05 06:33:23;;;;;;;5.53;2.90;;;10.70;99.90;;;;;;5117701;28;20486;-75
2022/11/05 06:35:54;;;;;;;5.00;3.50;;;10.50;99.90;;;;;;5116794;28;20481;-73
2022/11/05 06:38:21;;;;;;;6.43;4.47;;;10.40;99.90;;;;;;5116974;28;20793;-74
2022/11/05 06:40:48;;;;;;;6.85;4.60;;;10.20;99.90;;;;;;5117201;28;20815;-73
2022/11/05 06:43:15;;;;;;;5.22;3.83;;;10.10;99.90;;;;;;5116709;28;20439;-73
2022/11/05 06:45:42;;;;;;;7.73;4.93;;;10.30;99.90;;;;;;5117563;28;20481;-73
2022/11/05 06:48:09;;;;;;;5.80;3.30;;;10.30;99.90;;;;;;5117104;28;20420;-73
2022/11/05 06:50:36;;;;;;;4.90;3.20;;;10.50;99.90;;;;;;5116470;28;20449;-73
2022/11/05 06:53:05;;;;;;;5.15;3.72;;;10.60;99.90;;;;;;5115674;28;20501;-73
2022/11/05 06:55:34;;;;;;;8.30;4.57;;;10.50;99.90;;;;;;5116396;28;20704;-73
2022/11/05 06:58:01;;;;;;;6.05;4.03;;;10.50;99.90;;;;;;5116340;28;20444;-73
2022/11/05 07:00:28;;;;;;;6.20;3.95;;;10.30;99.90;;;;;;5115727;28;20481;-73
2022/11/05 07:02:57;;;;;;;9.45;4.97;;;10.20;99.90;;;;;;5116644;28;20475;-72
2022/11/05 07:05:24;;;;;;;7.30;4.18;;;10.10;99.90;;;;;;5115131;28;20460;-74
2022/11/05 07:07:51;;;;;;;7.60;4.87;;;10.20;99.90;;;;;;5115434;28;20777;-73
2022/11/05 07:10:20;;;;;;;6.40;4.10;;;10.20;99.90;;;;;;5116434;28;20519;-73
2022/11/05 07:12:47;;;;;;;6.93;4.25;;;10.10;99.90;;;;;;5117034;28;20855;-74
2022/11/05 07:15:14;;;;;;;6.20;3.55;;;10.20;99.90;;;;;;5117313;28;20423;-74
2022/11/05 07:17:41;;;;;;;6.68;4.05;;;10.40;99.90;;;;;;5117194;28;20419;-75
2022/11/05 07:20:09;;;;;;;7.35;4.68;;;10.60;99.90;;;;;;5117821;27;20486;-74
2022/11/05 07:22:37;;;;;;;6.80;4.55;;;10.50;99.90;;;;;;5116765;28;20493;-73
2022/11/05 07:25:04;;;;;;;6.10;3.65;;;10.40;99.90;;;;;;5117262;28;20513;-74
2022/11/05 07:27:37;;;;;;;6.10;3.90;;;10.50;99.90;;;;;;5117362;28;20420;-73
2022/11/05 07:30:05;;;;;;;6.95;4.50;;;10.40;99.90;;;;;;5117385;28;20424;-73
2022/11/05 07:32:37;;;;;;;6.93;4.33;;;10.50;99.90;;;;;;5118271;28;20428;-75
2022/11/05 07:35:05;;;;;;;7.15;3.33;;;10.60;99.90;;;;;;5117325;28;20447;-73
2022/11/05 07:37:41;;;;;;;6.68;4.10;;;10.70;99.90;;;;;;5116568;28;20420;-73
2022/11/05 07:40:09;;;;;;;5.03;3.20;;;10.80;99.90;;;;;;5115941;28;20484;-73
2022/11/05 07:42:37;;;;;;;7.47;4.15;;;10.90;99.90;;;;;;5116199;28;20527;-73
2022/11/05 07:45:05;;;;;;;6.25;3.83;;;10.80;99.90;;;;;;5116344;28;20452;-73
2022/11/05 07:47:32;;;;;;;7.05;3.40;;;10.70;99.90;;;;;;5121671;28;20507;-73
2022/11/05 07:50:02;;;;;;;4.65;3.20;;;10.80;99.90;;;;;;5123326;28;20463;-73
2022/11/05 07:52:31;;;;;;;5.80;3.47;;;10.80;99.90;;;;;;5123615;28;20892;-72
2022/11/05 07:54:58;;;;;;;5.45;3.40;;;10.90;99.90;;;;;;5123348;28;20448;-74
2022/11/05 07:57:25;;;;;;;5.93;3.25;;;10.80;99.90;;;;;;5123420;28;20427;-74
2022/11/05 07:59:53;;;;;;;4.63;3.10;;;11.00;99.90;;;;;;5122596;28;20477;-75
2022/11/05 08:02:21;;;;;;;6.00;3.97;;;10.90;99.90;;;;;;5122865;28;20436;-75
2022/11/05 08:04:48;;;;;;;5.38;3.15;;;11.00;99.90;;;;;;5122620;28;20874;-72
2022/11/05 08:07:15;;;;;;;5.28;3.17;;;10.70;99.90;;;;;;5123589;28;20500;-74
2022/11/05 08:09:42;;;;;;;4.20;2.80;;;10.80;99.90;;;;;;5123317;28;20416;-77
2022/11/05 08:12:09;;;;;;;5.35;2.92;;;10.80;99.90;;;;;;5123526;28;20475;-75
2022/11/05 08:14:36;;;;;;;3.00;2.40;;;10.80;99.90;;;;;;5123741;28;20419;-76
2022/11/05 08:17:05;;;;;;;2.55;1.60;;;10.70;99.90;;;;;;5123259;28;20423;-75
2022/11/05 08:19:32;;;;;;;2.70;1.85;;;10.90;99.90;;;;;;5122881;28;20802;-75
2022/11/05 08:21:59;;;;;;;2.95;1.80;;;10.70;99.90;;;;;;5123630;28;20424;-75
2022/11/05 08:24:25;;;;;;;2.03;1.13;;;10.70;99.90;;;;;;5123391;28;20467;-75
2022/11/05 08:26:53;;;;;;;2.20;1.30;;;10.50;99.90;;;;;;5123193;28;20420;-75
2022/11/05 08:29:20;;;;;;;1.92;1.10;;;10.40;99.90;;;;;;5122313;28;20447;-75
2022/11/05 08:31:47;;;;;;;1.85;1.20;;;10.10;99.90;;;;;;5122603;28;20412;-75
2022/11/05 08:34:15;;;;;;;1.73;1.10;;;9.90;99.90;;;;;;5123047;28;20415;-75
2022/11/05 08:36:45;;;;;;;1.50;1.00;;;10.10;99.90;;;;;;5122722;28;20506;-75
2022/11/05 08:39:12;;;;;;;1.38;0.98;;;10.20;99.90;;;;;;5122836;28;20426;-76
2022/11/05 08:41:40;;;;;;;2.00;1.00;;;10.20;99.90;;;;;;5122261;28;20431;-75
2022/11/05 08:44:08;;;;;;;1.40;0.90;;;9.90;99.90;;;;;;5123361;28;20476;-76
2022/11/05 08:46:35;;;;;;;1.17;0.80;;;10.10;99.90;;;;;;5122498;28;20462;-75
2022/11/05 08:49:03;;;;;;;1.70;0.80;;;10.30;99.90;;;;;;5121934;28;20527;-76
2022/11/05 08:51:31;;;;;;;1.10;0.73;;;10.30;99.90;;;;;;5121810;28;20793;-75
2022/11/05 08:54:01;;;;;;;1.00;0.65;;;10.20;99.90;;;;;;5121530;28;20474;-75
2022/11/05 08:56:28;;;;;;;1.25;0.70;;;10.30;99.90;;;;;;5121248;28;20447;-75
2022/11/05 08:58:55;;;;;;;0.90;0.60;;;10.30;99.90;;;;;;5119281;28;20871;-73
2022/11/05 09:01:22;;;;;;;1.15;0.70;;;10.40;99.90;;;;;;5118852;28;20420;-75
2022/11/05 09:03:53;;;;;;;1.42;0.60;;;10.70;99.90;;;;;;5118217;28;20723;-74
2022/11/05 09:06:19;;;;;;;1.20;0.80;;;10.70;99.90;;;;;;5119376;28;20461;-74
2022/11/05 09:08:51;;;;;;;1.00;0.70;;;10.50;99.90;;;;;;5119600;28;20497;-74
2022/11/05 09:11:18;;;;;;;1.20;0.70;;;10.50;99.90;;;;;;5117637;28;20417;-74
2022/11/05 09:13:45;;;;;;;1.20;0.70;;;10.40;99.90;;;;;;5117491;28;20435;-74
2022/11/05 09:16:19;;;;;;;1.70;0.70;;;10.20;99.90;;;;;;5117455;28;20452;-74
2022/11/05 09:18:47;;;;;;;0.90;0.70;;;10.60;99.90;;;;;;5116704;28;20424;-73
2022/11/05 09:21:14;;;;;;;1.00;0.70;;;10.60;99.90;;;;;;5116914;28;20462;-73
2022/11/05 09:23:41;;;;;;;1.40;0.70;;;10.50;99.90;;;;;;5117974;28;20449;-74
2022/11/05 09:26:09;;;;;;;1.10;0.70;;;10.50;99.90;;;;;;5109738;28;20451;-74
2022/11/05 09:28:38;;;;;;;1.50;0.80;;;10.20;99.90;;;;;;5119114;28;20881;-73
2022/11/05 09:31:07;;;;;;;2.10;0.80;;;10.40;99.90;;;;;;5118213;28;20499;-74
2022/11/05 09:33:35;;;;;;;1.45;0.80;;;10.30;99.90;;;;;;5119033;28;20502;-74
2022/11/05 09:36:02;;;;;;;1.00;0.70;;;10.30;99.90;;;;;;5118360;28;20424;-73
2022/11/05 09:38:30;;;;;;;1.80;0.70;;;10.60;99.90;;;;;;5118808;28;20455;-74
2022/11/05 09:41:00;;;;;;;1.20;0.80;;;10.60;99.90;;;;;;5118135;28;20416;-74
2022/11/05 09:43:34;;;;;;;1.27;0.80;;;10.50;99.90;;;;;;5118086;28;20453;-75
2022/11/05 09:46:08;;;;;;;1.50;0.70;;;10.40;99.90;;;;;;5118104;28;20412;-75
2022/11/05 09:48:38;;;;;;;1.80;0.70;;;10.40;99.90;;;;;;5119271;28;20507;-76
2022/11/05 09:51:06;;;;;;;1.80;0.80;;;10.60;99.90;;;;;;5119426;28;20416;-76
2022/11/05 09:53:37;;;;;;;1.30;0.80;;;10.80;99.90;;;;;;5119576;28;20412;-75
2022/11/05 09:56:06;;;;;;;3.05;0.90;;;10.70;99.90;;;;;;5118829;28;20469;-75
2022/11/05 09:58:42;;;;;;;2.13;1.00;;;10.70;99.90;;;;;;5118177;28;20465;-75
2022/11/05 10:01:16;;;;;;;1.50;1.02;;;10.80;99.90;;;;;;5118741;28;20416;-75
2022/11/05 10:03:46;;;;;;;1.88;1.00;;;10.70;99.90;;;;;;5117342;28;20472;-75
2022/11/05 10:06:18;;;;;;;1.95;1.00;;;10.40;99.90;;;;;;5118215;28;20444;-76
2022/11/05 10:08:49;;;;;;;1.50;0.90;;;10.50;99.90;;;;;;5118708;28;20428;-76
2022/11/05 10:11:22;;;;;;;1.60;1.00;;;10.60;99.90;;;;;;5116929;28;20494;-75
2022/11/05 10:13:55;;;;;;;3.10;1.35;;;10.50;99.90;;;;;;5117005;28;20417;-76
2022/11/05 10:16:25;;;;;;;2.40;1.40;;;10.30;99.90;;;;;;5116457;28;20477;-74
2022/11/05 10:18:56;;;;;;;3.00;1.20;;;10.40;99.90;;;;;;5117808;28;20469;-75
2022/11/05 10:21:23;;;;;;;1.95;1.10;;;10.70;99.90;;;;;;5117735;28;20428;-75
2022/11/05 10:23:50;;;;;;;2.58;1.17;;;11.00;99.90;;;;;;5116891;28;20458;-75
2022/11/05 10:26:20;;;;;;;2.10;1.17;;;11.00;99.90;;;;;;5117494;28;20452;-74
2022/11/05 10:28:48;;;;;;;2.25;1.10;;;11.10;99.90;;;;;;5117600;28;20867;-74
2022/11/05 10:31:19;;;;;;;3.30;1.20;;;10.70;99.90;;;;;;5117238;28;20832;-74
2022/11/05 10:33:51;;;;;;;2.07;1.20;;;10.90;99.90;;;;;;5116864;28;20724;-75
2022/11/05 10:36:23;;;;;;;4.47;1.20;;;10.80;99.90;;;;;;5116459;28;20432;-74
2022/11/05 10:38:51;;;;;;;1.63;1.02;;;11.00;99.90;;;;;;5116730;28;20487;-75
2022/11/05 10:41:38;;;;;;;2.63;1.30;;;11.30;99.90;;;;;;5115925;28;20421;-75
2022/11/05 10:44:16;;;;;;;3.10;1.30;;;10.90;99.90;;;;;;5117132;28;20512;-74
2022/11/05 10:46:51;;;;;;;2.00;1.10;;;10.70;99.90;;;;;;5117070;28;20424;-75
2022/11/05 10:49:32;;;;;;;2.67;1.30;;;11.10;99.90;;;;;;5117455;28;20511;-74
2022/11/05 10:52:03;;;;;;;1.88;1.20;;;11.30;99.90;;;;;;5118338;28;20543;-75
2022/11/05 10:54:34;;;;;;;2.90;1.20;;;11.50;99.90;;;;;;5119132;28;20420;-75
2022/11/05 10:57:27;;;;;;;2.10;1.40;;;11.60;99.90;;;;;;5116923;28;20463;-75
2022/11/05 10:59:54;;;;;;;2.20;1.30;;;11.60;99.90;;;;;;5116538;28;20848;-74
2022/11/05 11:02:25;;;;;;;2.60;1.20;;;11.70;99.90;;;;;;5116190;28;20532;-75
2022/11/05 11:04:53;;;;;;;2.70;1.10;;;11.80;92.40;;;;;;5117468;28;20720;-75
2022/11/05 11:07:23;;;;;;;1.88;1.10;;;11.80;98.40;;;;;;5116884;28;20721;-74
2022/11/05 11:09:51;;;;;;;2.95;1.10;;;11.70;94.60;;;;;;5116070;28;20432;-74
2022/11/05 11:12:23;;;;;;;1.83;1.30;;;11.70;99.90;;;;;;5115784;28;20428;-74
2022/11/05 11:15:01;;;;;;;2.45;1.10;;;11.50;99.30;;;;;;5116418;28;20444;-75
2022/11/05 11:17:31;;;;;;;3.40;1.10;;;11.50;83.80;;;;;;5116292;28;20706;-75
2022/11/05 11:20:24;;;;;;;2.45;1.10;;;11.70;99.90;;;;;;5116835;28;20420;-74
2022/11/05 11:23:11;;;;;;;2.28;1.00;;;11.70;96.90;;;;;;5115250;28;20456;-75
2022/11/05 11:25:45;;;;;;;2.10;1.20;;;11.80;98.60;;;;;;5116867;28;20490;-74
2022/11/05 11:28:19;;;;;;;1.40;1.00;;;11.90;82.80;;;;;;5116584;28;20519;-75
2022/11/05 11:30:53;;;;;;;1.70;0.90;;;11.80;47.10;;;;;;5115878;28;20420;-75
2022/11/05 11:33:27;;;;;;;1.90;1.10;;;11.90;73.10;;;;;;5116140;28;20489;-74
2022/11/05 11:35:56;;;;;;;1.67;1.00;;;12.00;79.80;;;;;;5116420;28;20828;-74
2022/11/05 11:38:28;;;;;;;1.70;1.10;;;12.10;66.10;;;;;;5116545;28;20438;-74
2022/11/05 11:41:07;;;;;;;1.80;1.00;;;11.90;76.40;;;;;;5116397;28;20904;-75
2022/11/05 11:43:37;;;;;;;2.50;1.00;;;12.00;70.50;;;;;;5098718;28;20437;-74
2022/11/05 11:46:04;;;;;;;2.90;1.10;;;12.00;55.80;;;;;;5115494;28;20416;-74
2022/11/05 11:48:36;;;;;;;1.80;1.20;;;11.80;71.10;;;;;;5115426;28;20461;-74
2022/11/05 11:51:17;;;;;;;1.73;1.00;;;11.70;93.80;;;;;;5115720;28;20482;-74
2022/11/05 11:53:47;;;;;;;2.90;1.20;;;11.70;99.30;;;;;;5103689;28;20435;-74
2022/11/05 11:56:16;;;;;;;3.28;1.00;;;11.80;99.40;;;;;;5118100;28;20473;-76
2022/11/05 11:58:46;;;;;;;2.20;1.00;;;11.90;75.70;;;;;;5119017;28;20458;-77
2022/11/05 12:01:39;;;;;;;3.03;1.10;;;11.90;78.90;;;;;;5113833;28;20444;-78
2022/11/05 12:04:26;;;;;;;1.40;0.82;;;11.60;93.70;;;;;;5103348;28;20460;-77
2022/11/05 12:07:09;;;;;;;1.30;0.90;;;12.00;54.80;;;;;;5095710;28;20429;-77
2022/11/05 12:09:52;;;;;;;1.90;0.90;;;12.20;34.60;;;;;;5113325;28;20477;-77
2022/11/05 12:12:26;;;;;;;1.63;0.90;;;12.40;17.00;;;;;;5116812;28;20997;-76
2022/11/05 12:15:01;;;;;;;1.20;0.80;;;12.50;4.80;;;;;;5114860;28;20451;-77
2022/11/05 12:17:47;;;;;;;1.95;0.90;;;12.60;1.00;;;;;;5114829;28;20439;-75
2022/11/05 12:20:28;;;;;;;1.30;0.80;;;12.70;1.00;;;;;;5113374;28;20735;-75
2022/11/05 12:23:24;;;;;;;3.20;1.00;;;12.60;3.90;;;;;;5130271;28;20513;-74
2022/11/05 12:25:57;;;;;;;1.60;1.00;;;12.60;16.90;;;;;;5064295;28;20499;-75
2022/11/05 12:28:52;;;;;;;2.60;0.90;;;12.40;24.00;;;;;;5110763;28;20428;-75
2022/11/05 12:31:27;;;;;;;1.70;1.00;;;12.30;34.10;;;;;;5112754;28;20424;-75
2022/11/05 12:34:12;;;;;;;1.50;1.00;;;12.10;27.40;;;;;;5116522;28;20459;-76
2022/11/05 12:36:55;;;;;;;2.10;1.20;;;12.00;19.40;;;;;;5101537;28;20473;-76
2022/11/05 12:39:43;;;;;;;2.30;1.00;;;11.70;27.40;;;;;;5117661;28;20455;-76
2022/11/05 12:42:19;;;;;;;1.60;1.05;;;11.60;44.40;;;;;;5118697;28;20713;-75
2022/11/05 12:44:57;;;;;;;1.52;1.00;;;11.70;48.70;;;;;;5119555;28;20416;-75
2022/11/05 12:47:45;;;;;;;2.80;1.00;;;11.80;43.00;;;;;;5119000;28;20465;-74
2022/11/05 12:50:23;;;;;;;1.77;1.00;;;11.90;47.20;;;;;;5118047;28;20420;-75
2022/11/05 12:53:26;;;;;;;2.60;1.20;;;12.10;33.90;;;;;;5117802;28;20428;-76
2022/11/05 12:55:54;;;;;;;3.10;1.00;;;12.20;14.70;;;;;;5116283;28;20454;-74
2022/11/05 12:58:27;;;;;;;2.70;1.10;;;12.30;1.00;;;;;;5117728;28;20428;-74
2022/11/05 13:00:58;;;;;;;2.80;1.10;;;12.20;1.10;;;;;;5118191;28;20456;-75
2022/11/05 13:03:32;;;;;;;2.80;1.00;;;12.30;3.00;;;;;;5117576;28;20930;-75
2022/11/05 13:06:05;;;;;;;1.70;1.10;;;12.40;1.00;;;;;;5118095;28;20463;-75
2022/11/05 13:08:39;;;;;;;2.10;0.90;;;12.50;1.00;;;;;;5117344;28;20428;-74
2022/11/05 13:11:16;;;;;;;2.00;1.20;;;12.50;1.00;;;;;;5117690;28;20469;-75
2022/11/05 13:13:47;;;;;;;1.90;1.10;;;12.40;1.00;;;;;;5118080;28;20424;-74
2022/11/05 13:16:24;;;;;;;1.90;1.00;;;12.30;1.00;;;;;;5117730;28;20424;-76
2022/11/05 13:18:55;;;;;;;2.20;1.20;;;12.00;4.70;;;;;;5117277;28;20455;-76
2022/11/05 13:21:24;;;;;;;2.20;1.10;;;12.10;1.00;;;;;;5112283;28;20434;-75
2022/11/05 13:23:56;;;;;;;1.80;1.40;;;12.20;1.00;;;;;;5114021;28;21002;-74
2022/11/05 13:26:27;;;;;;;1.70;1.00;;;12.20;1.00;;;;;;5116757;28;20444;-75
2022/11/05 13:29:04;;;;;;;1.80;1.30;;;12.10;1.00;;;;;;5115335;28;20427;-76
2022/11/05 13:31:35;;;;;;;2.10;1.20;;;12.10;1.00;;;;;;5116428;28;20443;-75
2022/11/05 13:34:09;;;;;;;2.50;1.10;;;12.10;1.00;;;;;;5116884;28;20847;-76
2022/11/05 13:39:33;;;;;;;1.83;1.00;;;12.00;1.00;;;;;;5117666;28;20550;-75
2022/11/05 13:42:38;;;;;;;1.43;1.00;;;12.00;1.00;;;;;;5117769;28;20436;-76
2022/11/05 13:45:25;;;;;;;1.80;1.10;;;11.90;1.00;;;;;;5115851;28;20774;-75
2022/11/05 13:48:29;;;;;;;1.57;1.00;;;11.70;1.00;;;;;;5116770;28;20463;-75
2022/11/05 13:51:23;;;;;;;1.70;1.10;;;11.60;1.00;;;;;;5115933;28;20504;-74
2022/11/05 13:54:16;;;;;;;1.77;1.00;;;11.50;1.00;;;;;;5077991;28;20462;-75
2022/11/05 13:57:04;;;;;;;1.80;1.10;;;11.50;1.00;;;;;;5099050;28;20414;-75